Time;durP1;ratioP1;P1;durP2;ratioP2;P2;SDS_P1;SDS_P2;PMS_P1;PMS_P2;Temp;Humidity;BMP_temperature;BMP_pressure;BME280_temperature;BME280_humidity;BME280_pressure;Samples;Min_cycle;Max_cycle;Signal;HPM_P1;HPM_P2
2022/10/24 00:01:14;;;;;;;16.40;3.47;;;;;;;16.05;100.00;99000.13;7384439;19;20014;-60
2022/10/24 00:03:42;;;;;;;9.13;0.90;;;;;;;16.11;100.00;98993.09;7386516;19;20022;-62
2022/10/24 00:06:11;;;;;;;13.15;0.60;;;;;;;16.12;100.00;98986.75;7383975;19;20010;-61
2022/10/24 00:08:39;;;;;;;8.63;0.50;;;;;;;16.13;100.00;98981.22;7385112;19;20015;-60
2022/10/24 00:11:28;;;;;;;10.98;0.70;;;;;;;16.13;100.00;98973.25;7385174;19;20006;-60
2022/10/24 00:13:56;;;;;;;11.23;0.73;;;;;;;16.15;100.00;98970.38;7383236;19;20025;-62
2022/10/24 00:16:23;;;;;;;6.90;0.50;;;;;;;16.14;100.00;98968.75;7385235;19;20457;-59
2022/10/24 00:18:50;;;;;;;8.70;0.60;;;;;;;16.15;100.00;98965.06;7386160;19;20015;-59
2022/10/24 00:21:17;;;;;;;11.88;0.55;;;;;;;16.17;100.00;98965.63;7385171;19;20010;-59
2022/10/24 00:23:44;;;;;;;8.27;0.77;;;;;;;16.16;100.00;98962.16;7386476;19;20042;-58
2022/10/24 00:26:12;;;;;;;7.82;0.63;;;;;;;16.18;100.00;98962.75;7384263;19;20590;-60
2022/10/24 00:28:40;;;;;;;11.27;0.40;;;;;;;16.20;100.00;98962.53;7384219;19;20015;-60
2022/10/24 00:31:12;;;;;;;7.55;0.40;;;;;;;16.21;100.00;98942.88;7386281;19;20010;-59
2022/10/24 00:33:38;;;;;;;11.40;0.70;;;;;;;16.20;100.00;98941.28;7385889;19;20034;-60
2022/10/24 00:36:11;;;;;;;10.48;0.80;;;;;;;16.17;100.00;98928.47;7385797;19;20025;-60
2022/10/24 00:38:38;;;;;;;12.57;0.80;;;;;;;16.16;100.00;98914.41;7385835;19;20038;-58
2022/10/24 00:41:05;;;;;;;10.43;0.57;;;;;;;16.18;100.00;98920.28;7382463;19;20018;-60
2022/10/24 00:43:31;;;;;;;8.82;0.40;;;;;;;16.18;100.00;98909.66;7381152;19;20022;-59
2022/10/24 00:46:03;;;;;;;8.23;0.38;;;;;;;16.18;100.00;98914.16;7386162;19;20382;-59
2022/10/24 00:48:40;;;;;;;33.20;6.23;;;;;;;16.19;100.00;98911.28;7385845;19;20042;-59
2022/10/24 00:51:20;;;;;;;10.25;0.50;;;;;;;16.20;100.00;98920.06;7385171;19;20011;-58
2022/10/24 00:53:50;;;;;;;7.90;0.50;;;;;;;16.20;100.00;98902.25;7384779;19;20039;-62
2022/10/24 00:56:20;;;;;;;10.90;0.52;;;;;;;16.18;100.00;98891.09;7383225;19;20019;-60
2022/10/24 00:58:48;;;;;;;14.07;1.35;;;;;;;16.19;100.00;98900.66;7384194;19;20017;-61
2022/10/24 01:01:15;;;;;;;8.80;0.40;;;;;;;16.17;99.96;98910.72;7384980;19;20011;-61
2022/10/24 01:03:42;;;;;;;7.60;0.50;;;;;;;16.19;100.00;98897.22;7384867;19;20022;-61
2022/10/24 01:06:33;;;;;;;7.15;0.57;;;;;;;16.24;99.72;98908.72;7383462;19;20039;-59
2022/10/24 01:09:20;;;;;;;9.90;0.73;;;;;;;16.21;99.29;98914.50;7385737;19;20046;-58
2022/10/24 01:12:20;;;;;;;9.02;0.75;;;;;;;16.24;99.55;98918.53;7382506;19;20038;-60
2022/10/24 01:15:02;;;;;;;5.70;0.40;;;;;;;16.21;99.49;98914.50;7383364;19;20014;-59
2022/10/24 01:17:42;;;;;;;9.32;0.60;;;;;;;16.17;99.71;98929.28;7382814;19;20014;-58
2022/10/24 01:20:36;;;;;;;11.18;0.50;;;;;;;16.18;99.68;98943.34;7383513;19;20014;-61
2022/10/24 01:23:21;;;;;;;9.15;0.30;;;;;;;16.17;99.84;98949.69;7384108;19;20018;-59
2022/10/24 01:26:09;;;;;;;7.65;0.30;;;;;;;16.09;99.10;98961.50;7387406;19;20019;-59
2022/10/24 01:28:43;;;;;;;9.77;0.73;;;;;;;16.04;98.60;98981.81;7389724;19;20022;-60
2022/10/24 01:31:20;;;;;;;5.30;0.30;;;;;;;15.99;98.60;98998.44;7389431;19;20589;-60
2022/10/24 01:33:59;;;;;;;4.85;0.52;;;;;;;15.96;98.83;99006.03;7390073;19;20032;-60
2022/10/24 01:36:36;;;;;;;4.70;0.35;;;;;;;15.89;99.12;99008.84;7388555;19;20043;-59
2022/10/24 01:39:10;;;;;;;2.47;0.30;;;;;;;15.82;99.18;99008.94;7390389;19;20021;-58
2022/10/24 01:41:41;;;;;;;2.15;0.10;;;;;;;15.80;99.59;99012.84;7389129;19;20015;-60
2022/10/24 01:44:17;;;;;;;1.23;0.13;;;;;;;15.78;99.84;99031.66;7390491;19;20475;-60
2022/10/24 01:46:51;;;;;;;5.53;0.50;;;;;;;15.72;99.81;99029.94;7392154;19;20022;-60
2022/10/24 01:49:20;;;;;;;5.32;0.20;;;;;;;15.73;100.00;99036.03;7390987;19;20010;-58
2022/10/24 01:51:52;;;;;;;1.90;0.10;;;;;;;15.71;100.00;99036.28;7391154;19;20347;-60
2022/10/24 01:54:20;;;;;;;3.17;0.20;;;;;;;15.73;100.00;99049.31;7390973;19;20043;-61
2022/10/24 01:56:46;;;;;;;2.78;0.10;;;;;;;15.74;100.00;99051.75;7387972;19;20643;-61
2022/10/24 01:59:28;;;;;;;0.73;0.10;;;;;;;15.76;100.00;99049.66;7388494;19;20266;-62
2022/10/24 02:01:57;;;;;;;3.72;0.10;;;;;;;15.77;100.00;99045.97;7391175;19;20032;-60
2022/10/24 02:04:28;;;;;;;2.28;0.20;;;;;;;15.74;99.53;99053.59;7388647;19;20026;-61
2022/10/24 02:06:59;;;;;;;0.65;0.10;;;;;;;15.70;99.51;99065.66;7388898;19;20031;-60
2022/10/24 02:09:27;;;;;;;5.00;0.20;;;;;;;15.70;99.94;99066.47;7389119;19;20019;-59
2022/10/24 02:11:57;;;;;;;3.58;0.20;;;;;;;15.72;100.00;99069.72;7388405;19;20043;-60
2022/10/24 02:14:34;;;;;;;1.75;0.10;;;;;;;15.69;100.00;99088.75;7389510;19;20022;-59
2022/10/24 02:17:02;;;;;;;4.65;0.35;;;;;;;15.68;100.00;99099.56;7390592;19;20018;-61
2022/10/24 02:19:31;;;;;;;2.70;0.10;;;;;;;15.70;100.00;99102.78;7389637;19;20487;-60
2022/10/24 02:22:25;;;;;;;1.90;0.10;;;;;;;15.68;100.00;99104.88;7389953;19;20042;-59
2022/10/24 02:25:10;;;;;;;1.10;0.10;;;;;;;15.56;100.00;99117.28;7390529;19;20502;-59
2022/10/24 02:27:47;;;;;;;0.93;0.00;;;;;;;15.53;100.00;99144.28;7386991;19;20028;-60
2022/10/24 02:30:21;;;;;;;1.50;0.00;;;;;;;15.47;100.00;99151.25;7389935;19;20356;-60
2022/10/24 02:32:52;;;;;;;6.72;0.60;;;;;;;15.48;100.00;99152.06;7388197;19;20014;-60
2022/10/24 02:35:23;;;;;;;1.58;0.10;;;;;;;15.47;100.00;99167.16;7388504;19;20015;-60
2022/10/24 02:37:54;;;;;;;2.25;0.08;;;;;;;15.48;100.00;99176.72;7386754;19;20042;-60
2022/10/24 02:40:22;;;;;;;0.57;0.00;;;;;;;15.41;100.00;99182.13;7388798;19;20038;-58
2022/10/24 02:42:52;;;;;;;0.80;0.10;;;;;;;15.37;100.00;99191.56;7385612;19;20039;-61
2022/10/24 02:45:21;;;;;;;2.30;0.00;;;;;;;15.37;100.00;99198.69;7389108;19;20044;-60
2022/10/24 02:47:51;;;;;;;1.45;0.20;;;;;;;15.32;100.00;99217.94;7389517;19;20015;-60
2022/10/24 02:50:19;;;;;;;0.88;0.00;;;;;;;15.31;100.00;99205.69;7389458;19;20018;-58
2022/10/24 02:52:46;;;;;;;2.55;0.43;;;;;;;15.27;100.00;99211.66;7388282;19;20014;-59
2022/10/24 02:55:14;;;;;;;1.27;0.00;;;;;;;15.26;100.00;99210.84;7388726;19;20572;-60
2022/10/24 02:57:41;;;;;;;2.28;0.05;;;;;;;15.24;100.00;99220.03;7383305;19;20018;-59
2022/10/24 03:00:08;;;;;;;0.75;0.00;;;;;;;15.21;100.00;99223.97;7388254;19;20484;-57
2022/10/24 03:02:35;;;;;;;0.88;0.20;;;;;;;15.20;100.00;99229.47;7388085;19;20010;-60
2022/10/24 03:05:09;;;;;;;0.55;0.10;;;;;;;15.19;100.00;99238.44;7387851;19;20010;-57
2022/10/24 03:07:35;;;;;;;0.47;0.00;;;;;;;15.23;100.00;99239.66;7387126;19;20060;-60
2022/10/24 03:10:03;;;;;;;0.85;0.00;;;;;;;15.24;100.00;99235.94;7388517;19;20365;-60
2022/10/24 03:12:29;;;;;;;2.75;0.10;;;;;;;15.21;100.00;99242.50;7384740;19;20174;-60
2022/10/24 03:14:56;;;;;;;1.75;0.10;;;;;;;15.22;100.00;99254.75;7387311;19;20046;-60
2022/10/24 03:17:23;;;;;;;2.03;0.10;;;;;;;15.20;100.00;99261.28;7387561;19;20507;-59
2022/10/24 03:19:50;;;;;;;2.95;0.10;;;;;;;15.18;100.00;99266.00;7386687;19;20015;-59
2022/10/24 03:22:17;;;;;;;2.95;0.10;;;;;;;15.17;100.00;99269.69;7387124;19;20014;-59
2022/10/24 03:24:46;;;;;;;1.15;0.10;;;;;;;15.20;100.00;99282.47;7386343;19;20527;-60
2022/10/24 03:27:21;;;;;;;1.30;0.30;;;;;;;15.19;100.00;99288.81;7383916;19;20026;-59
2022/10/24 03:29:48;;;;;;;1.42;0.10;;;;;;;15.23;100.00;99292.66;7387003;19;20497;-58
2022/10/24 03:32:15;;;;;;;1.10;0.00;;;;;;;15.20;99.58;99301.03;7388853;19;20045;-60
2022/10/24 03:34:42;;;;;;;1.33;0.30;;;;;;;15.20;99.51;99309.78;7387799;19;20018;-61
2022/10/24 03:37:09;;;;;;;1.17;0.10;;;;;;;15.21;99.35;99311.41;7387359;19;20078;-59
2022/10/24 03:39:36;;;;;;;0.20;0.00;;;;;;;15.23;99.32;99321.81;7386343;19;20010;-59
2022/10/24 03:42:03;;;;;;;1.02;0.17;;;;;;;15.23;99.31;99325.25;7384726;19;20425;-60
2022/10/24 03:44:30;;;;;;;1.33;0.15;;;;;;;15.26;99.22;99331.94;7384397;19;20042;-61
2022/10/24 03:46:56;;;;;;;1.77;0.20;;;;;;;15.27;99.14;99326.44;7385197;19;20018;-60
2022/10/24 03:49:23;;;;;;;2.10;0.20;;;;;;;15.27;98.67;99333.56;7387225;19;20019;-60
2022/10/24 03:51:50;;;;;;;3.25;0.20;;;;;;;15.28;98.80;99337.84;7386400;19;20018;-58
2022/10/24 03:54:17;;;;;;;2.25;0.17;;;;;;;15.31;98.32;99338.22;7387875;19;20372;-59
2022/10/24 03:56:46;;;;;;;2.08;0.20;;;;;;;15.23;97.59;99338.50;7381516;19;20722;-58
2022/10/24 03:59:13;;;;;;;2.42;0.85;;;;;;;15.25;97.86;99343.56;7386552;19;20010;-59
2022/10/24 04:01:40;;;;;;;2.40;0.30;;;;;;;15.26;97.85;99353.16;7385420;19;20060;-59
2022/10/24 04:04:07;;;;;;;2.20;0.30;;;;;;;15.27;97.63;99363.53;7384386;19;20018;-59
2022/10/24 04:06:34;;;;;;;3.95;0.30;;;;;;;15.26;97.21;99367.22;7387359;19;20031;-57
2022/10/24 04:09:03;;;;;;;3.78;0.30;;;;;;;15.29;97.56;99376.56;7388436;19;20022;-60
2022/10/24 04:11:30;;;;;;;3.92;0.22;;;;;;;15.26;97.17;99372.50;7383660;19;20538;-61
2022/10/24 04:13:57;;;;;;;7.07;0.40;;;;;;;15.24;97.20;99379.03;7384831;19;20011;-59
2022/10/24 04:16:24;;;;;;;0.88;0.20;;;;;;;15.22;96.81;99391.72;7384961;19;20050;-59
2022/10/24 04:18:51;;;;;;;2.58;0.50;;;;;;;15.22;96.81;99392.53;7387678;19;20022;-60
2022/10/24 04:21:18;;;;;;;2.55;0.47;;;;;;;15.24;96.82;99390.47;7383339;19;20022;-59
2022/10/24 04:23:47;;;;;;;3.03;0.38;;;;;;;15.28;97.06;99399.63;7387536;19;20019;-58
2022/10/24 04:26:16;;;;;;;3.35;0.73;;;;;;;15.30;97.25;99408.16;7382595;19;20022;-58
2022/10/24 04:28:45;;;;;;;3.47;0.43;;;;;;;15.33;97.07;99409.56;7386034;19;20035;-59
2022/10/24 04:31:12;;;;;;;3.53;0.60;;;;;;;15.36;97.12;99419.72;7385029;19;20039;-58
2022/10/24 04:33:45;;;;;;;2.33;0.45;;;;;;;15.33;96.40;99420.97;7388082;19;20082;-59
2022/10/24 04:36:12;;;;;;;1.85;0.30;;;;;;;15.34;96.01;99429.72;7385024;19;20039;-59
2022/10/24 04:38:38;;;;;;;2.83;0.30;;;;;;;15.29;95.52;99435.66;7385927;19;20043;-61
2022/10/24 04:41:05;;;;;;;3.28;1.30;;;;;;;15.30;95.79;99445.25;7381614;19;20014;-60
2022/10/24 04:43:37;;;;;;;2.92;0.40;;;;;;;15.35;96.46;99445.41;7383664;19;20039;-58
2022/10/24 04:46:04;;;;;;;2.92;0.30;;;;;;;15.35;95.84;99450.72;7384839;19;20440;-58
2022/10/24 04:48:31;;;;;;;3.35;0.40;;;;;;;15.34;95.11;99451.72;7385958;19;20014;-64
2022/10/24 04:50:58;;;;;;;3.10;0.35;;;;;;;15.33;95.14;99451.97;7386222;19;20732;-60
2022/10/24 04:53:25;;;;;;;4.03;0.32;;;;;;;15.31;95.08;99456.66;7385203;19;20268;-59
2022/10/24 04:55:52;;;;;;;1.15;0.22;;;;;;;15.28;94.76;99470.38;7384683;19;20492;-60
2022/10/24 04:58:19;;;;;;;2.38;0.40;;;;;;;15.28;95.22;99480.97;7380351;19;20022;-60
2022/10/24 05:00:48;;;;;;;5.18;0.32;;;;;;;15.22;94.13;99477.34;7390218;19;20017;-60
2022/10/24 05:03:19;;;;;;;1.25;0.30;;;;;;;15.19;93.81;99485.69;7390417;19;20018;-60
2022/10/24 05:05:46;;;;;;;4.50;0.20;;;;;;;15.18;93.93;99493.88;7391701;19;20010;-62
2022/10/24 05:08:14;;;;;;;2.25;0.30;;;;;;;15.17;94.16;99497.56;7391363;19;20049;-59
2022/10/24 05:10:41;;;;;;;1.60;0.20;;;;;;;15.20;94.50;99500.56;7393292;19;20011;-60
2022/10/24 05:13:08;;;;;;;1.95;0.20;;;;;;;15.20;94.01;99508.53;7389456;19;20018;-60
2022/10/24 05:15:35;;;;;;;2.03;0.30;;;;;;;15.14;93.61;99511.22;7392084;19;20053;-62
2022/10/24 05:18:03;;;;;;;1.67;0.20;;;;;;;15.16;94.19;99517.94;7391674;19;20022;-61
2022/10/24 05:20:31;;;;;;;1.42;0.20;;;;;;;15.10;93.48;99517.97;7390094;19;20031;-61
2022/10/24 05:22:58;;;;;;;1.55;0.30;;;;;;;15.08;93.31;99528.81;7390561;19;20010;-61
2022/10/24 05:25:25;;;;;;;1.80;0.17;;;;;;;15.04;93.21;99542.66;7391925;19;20038;-58
2022/10/24 05:27:52;;;;;;;1.58;0.20;;;;;;;15.03;93.26;99539.25;7388710;19;20325;-57
2022/10/24 05:30:19;;;;;;;3.60;0.30;;;;;;;14.98;93.12;99550.44;7392966;19;20019;-59
2022/10/24 05:32:46;;;;;;;0.65;0.20;;;;;;;14.99;93.31;99552.06;7390872;19;20133;-60
2022/10/24 05:35:14;;;;;;;1.08;0.20;;;;;;;14.97;93.13;99556.78;7391544;19;20018;-61
2022/10/24 05:37:42;;;;;;;4.53;0.17;;;;;;;14.99;93.31;99567.16;7391052;19;20011;-62
2022/10/24 05:40:11;;;;;;;2.70;0.20;;;;;;;15.01;93.57;99570.41;7391500;19;20017;-59
2022/10/24 05:42:37;;;;;;;3.15;0.10;;;;;;;14.97;92.85;99572.69;7387591;19;20044;-60
2022/10/24 05:45:12;;;;;;;4.50;0.20;;;;;;;14.96;93.08;99572.88;7392009;19;20050;-62
2022/10/24 05:47:39;;;;;;;2.65;0.30;;;;;;;15.01;93.91;99572.25;7390228;19;20039;-61
2022/10/24 05:50:07;;;;;;;1.55;0.10;;;;;;;14.99;93.53;99588.34;7390093;19;20506;-61
2022/10/24 05:52:35;;;;;;;1.67;0.10;;;;;;;14.97;93.13;99588.59;7389065;19;20019;-60
2022/10/24 05:55:06;;;;;;;2.72;0.30;;;;;;;15.01;93.45;99596.09;7389536;19;20010;-60
2022/10/24 05:57:36;;;;;;;1.88;0.10;;;;;;;14.97;92.88;99601.84;7385273;19;20583;-62
2022/10/24 06:00:10;;;;;;;2.28;0.10;;;;;;;14.94;92.61;99598.78;7388732;19;20573;-61
2022/10/24 06:02:37;;;;;;;4.00;0.25;;;;;;;14.96;93.39;99610.78;7390784;19;20698;-62
2022/10/24 06:05:04;;;;;;;2.08;0.20;;;;;;;15.02;94.10;99605.66;7386787;19;20830;-60
2022/10/24 06:07:31;;;;;;;0.77;0.03;;;;;;;15.04;93.98;99609.72;7389726;19;20014;-62
2022/10/24 06:09:58;;;;;;;2.05;0.10;;;;;;;15.02;93.56;99617.09;7389455;19;20385;-60
2022/10/24 06:12:26;;;;;;;0.95;0.05;;;;;;;15.04;93.76;99628.25;7386242;19;20144;-60
2022/10/24 06:14:57;;;;;;;0.75;0.10;;;;;;;15.05;93.19;99626.44;7390891;19;20440;-60
2022/10/24 06:17:25;;;;;;;1.58;0.10;;;;;;;15.01;92.85;99630.53;7388934;19;20035;-59
2022/10/24 06:19:51;;;;;;;5.03;0.68;;;;;;;14.97;92.64;99633.63;7390560;19;20038;-61
2022/10/24 06:22:22;;;;;;;1.38;0.20;;;;;;;14.96;93.40;99637.28;7389714;19;20038;-60
2022/10/24 06:24:51;;;;;;;1.23;0.10;;;;;;;15.00;93.82;99632.38;7389866;19;20480;-61
2022/10/24 06:27:23;;;;;;;3.25;0.80;;;;;;;15.03;93.68;99642.56;7386290;19;20373;-60
2022/10/24 06:29:50;;;;;;;1.30;0.10;;;;;;;15.08;93.69;99641.94;7386734;19;20490;-61
2022/10/24 06:32:17;;;;;;;3.25;0.17;;;;;;;15.04;92.19;99640.69;7389392;19;20037;-61
2022/10/24 06:34:44;;;;;;;0.98;0.10;;;;;;;14.96;91.90;99639.13;7388954;19;20010;-60
2022/10/24 06:37:11;;;;;;;3.28;0.30;;;;;;;14.93;92.19;99642.19;7389480;19;20031;-59
2022/10/24 06:39:38;;;;;;;0.60;0.10;;;;;;;14.89;92.22;99643.63;7389738;19;20006;-60
2022/10/24 06:42:04;;;;;;;2.05;0.10;;;;;;;14.85;91.89;99650.38;7384287;19;20015;-60
2022/10/24 06:44:31;;;;;;;0.43;0.10;;;;;;;14.81;91.97;99659.75;7384951;19;20026;-60
2022/10/24 06:46:58;;;;;;;1.73;0.10;;;;;;;14.79;92.34;99661.78;7390154;19;20522;-61
2022/10/24 06:49:25;;;;;;;11.23;0.30;;;;;;;14.79;92.42;99670.53;7389319;19;20022;-65
2022/10/24 06:51:52;;;;;;;3.20;0.20;;;;;;;14.79;92.56;99678.50;7389425;19;20425;-61
2022/10/24 06:54:19;;;;;;;2.08;0.40;;;;;;;14.80;93.07;99681.97;7387314;19;20038;-61
2022/10/24 06:56:47;;;;;;;2.67;0.20;;;;;;;14.81;93.18;99688.88;7385029;19;20056;-59
2022/10/24 06:59:16;;;;;;;1.55;0.10;;;;;;;14.80;92.59;99690.72;7386363;19;20018;-60
2022/10/24 07:01:43;;;;;;;5.10;0.38;;;;;;;14.79;92.38;99701.50;7388103;19;20131;-61
2022/10/24 07:04:10;;;;;;;2.72;0.20;;;;;;;14.80;92.68;99713.75;7388208;19;20467;-61
2022/10/24 07:06:37;;;;;;;0.82;0.20;;;;;;;14.80;92.68;99709.25;7388503;19;20047;-59
2022/10/24 07:09:04;;;;;;;3.92;2.13;;;;;;;14.81;92.57;99720.66;7388901;19;20014;-60
2022/10/24 07:11:35;;;;;;;5.18;0.30;;;;;;;14.86;93.31;99715.56;7385825;19;20011;-61
2022/10/24 07:14:02;;;;;;;1.83;0.10;;;;;;;14.90;93.38;99714.94;7387498;19;20010;-60
2022/10/24 07:16:35;;;;;;;1.67;0.13;;;;;;;14.91;93.00;99721.88;7388337;19;20022;-62
2022/10/24 07:19:03;;;;;;;2.70;0.15;;;;;;;14.93;92.65;99727.75;7388089;19;20039;-60
2022/10/24 07:21:32;;;;;;;3.67;0.20;;;;;;;14.94;92.48;99725.91;7385942;19;20592;-59
2022/10/24 07:24:00;;;;;;;1.17;0.17;;;;;;;14.93;92.28;99733.03;7386799;19;20554;-60
2022/10/24 07:26:28;;;;;;;3.72;0.30;;;;;;;14.92;92.27;99742.03;7382937;19;20022;-61
2022/10/24 07:28:59;;;;;;;3.00;0.17;;;;;;;14.97;92.26;99747.53;7387480;19;20327;-60
2022/10/24 07:31:47;;;;;;;2.90;0.10;;;;;;;15.02;91.74;99759.34;7386882;19;20133;-60
2022/10/24 07:34:14;;;;;;;0.90;0.15;;;;;;;15.04;91.81;99760.72;7385484;19;20555;-62
2022/10/24 07:36:41;;;;;;;2.75;0.52;;;;;;;15.06;91.81;99757.88;7386216;19;20034;-61
2022/10/24 07:39:10;;;;;;;3.30;0.30;;;;;;;15.12;91.99;99767.66;7388089;19;20490;-58
2022/10/24 07:41:40;;;;;;;3.65;0.40;;;;;;;15.15;91.64;99769.88;7384604;19;20030;-61
2022/10/24 07:44:08;;;;;;;4.32;0.20;;;;;;;15.18;91.97;99767.66;7385877;19;20100;-60
2022/10/24 07:46:34;;;;;;;4.15;0.60;;;;;;;15.21;91.92;99774.34;7388063;19;20594;-59
2022/10/24 07:49:01;;;;;;;2.42;0.43;;;;;;;15.20;91.63;99775.38;7387945;19;20578;-61
2022/10/24 07:51:30;;;;;;;9.82;0.40;;;;;;;15.30;96.08;99768.59;7387328;19;20025;-61
2022/10/24 07:53:57;;;;;;;1.63;0.20;;;;;;;15.43;98.41;99783.66;7386309;19;20015;-61
2022/10/24 07:56:25;;;;;;;7.85;0.57;;;;;;;15.47;96.67;99786.69;7383627;19;20019;-61
2022/10/24 07:58:52;;;;;;;4.30;0.47;;;;;;;15.57;97.10;99795.88;7386538;19;20368;-59
2022/10/24 08:01:22;;;;;;;4.55;0.32;;;;;;;15.57;95.00;99801.16;7386228;19;20014;-62
2022/10/24 08:03:49;;;;;;;2.95;0.50;;;;;;;15.54;92.98;99806.09;7383969;19;20128;-61
2022/10/24 08:06:21;;;;;;;4.63;0.20;;;;;;;15.53;92.34;99809.75;7385812;19;20410;-59
2022/10/24 08:08:48;;;;;;;3.00;0.20;;;;;;;15.50;91.54;99810.94;7387850;19;20019;-61
2022/10/24 08:11:24;;;;;;;5.25;0.47;;;;;;;15.46;90.79;99801.78;7383494;19;20023;-61
2022/10/24 08:13:53;;;;;;;3.33;0.50;;;;;;;15.46;90.66;99811.56;7386326;19;20083;-59
2022/10/24 08:16:21;;;;;;;2.45;0.20;;;;;;;15.49;90.52;99816.47;7385650;19;20038;-61
2022/10/24 08:18:50;;;;;;;1.48;0.20;;;;;;;15.52;90.77;99821.38;7383266;19;20023;-58
2022/10/24 08:21:19;;;;;;;3.72;0.20;;;;;;;15.54;90.20;99820.16;7384769;19;20130;-59
2022/10/24 08:23:48;;;;;;;2.33;0.10;;;;;;;15.49;89.12;99830.53;7386860;19;20132;-61
2022/10/24 08:26:18;;;;;;;2.47;0.40;;;;;;;15.50;90.06;99829.50;7382926;19;20050;-61
2022/10/24 08:28:45;;;;;;;2.30;0.20;;;;;;;15.51;90.16;99832.97;7386567;19;20010;-60
2022/10/24 08:31:19;;;;;;;4.13;0.28;;;;;;;15.51;90.40;99844.44;7385369;19;20026;-62
2022/10/24 08:33:47;;;;;;;1.75;0.10;;;;;;;15.51;90.42;99840.94;7387454;19;20022;-59
2022/10/24 08:36:29;;;;;;;2.50;0.17;;;;;;;15.56;90.63;99849.09;7392042;19;20047;-61
2022/10/24 08:38:56;;;;;;;6.32;0.25;;;;;;;15.57;90.59;99842.78;7395070;19;20614;-60
2022/10/24 08:41:26;;;;;;;4.00;0.50;;;;;;;15.55;89.98;99850.13;7389443;19;20025;-60
2022/10/24 08:43:55;;;;;;;4.25;0.30;;;;;;;15.51;88.78;99855.03;7389953;19;20007;-61
2022/10/24 08:46:37;;;;;;;6.20;0.20;;;;;;;15.49;88.85;99853.59;7391599;19;20018;-62
2022/10/24 08:49:16;;;;;;;3.83;0.30;;;;;;;15.54;90.23;99856.47;7393738;19;20014;-61
2022/10/24 08:51:50;;;;;;;2.35;0.20;;;;;;;15.58;90.33;99855.03;7392220;19;20218;-60
2022/10/24 08:54:22;;;;;;;4.38;0.73;;;;;;;15.57;89.44;99856.03;7393234;19;20044;-59
2022/10/24 08:56:53;;;;;;;1.35;0.20;;;;;;;15.55;88.93;99861.53;7389238;19;20046;-61
2022/10/24 08:59:20;;;;;;;3.08;0.20;;;;;;;15.56;88.73;99867.66;7392951;19;20044;-60
2022/10/24 09:01:57;;;;;;;5.05;0.30;;;;;;;15.58;89.68;99871.75;7386118;19;20029;-61
2022/10/24 09:04:45;;;;;;;4.00;0.45;;;;;;;15.64;89.83;99878.06;7390153;19;20052;-60
2022/10/24 09:07:18;;;;;;;5.78;0.40;;;;;;;15.67;89.35;99886.41;7393037;19;20039;-61
2022/10/24 09:09:49;;;;;;;5.90;0.50;;;;;;;15.65;88.54;99885.78;7392910;19;20117;-59
2022/10/24 09:12:20;;;;;;;2.28;0.20;;;;;;;15.62;88.46;99896.00;7389433;19;20014;-61
2022/10/24 09:14:59;;;;;;;3.92;0.65;;;;;;;15.68;89.75;99905.78;7391943;19;20496;-61
2022/10/24 09:17:33;;;;;;;3.15;0.10;;;;;;;15.76;90.18;99916.97;7392841;19;20018;-60
2022/10/24 09:20:19;;;;;;;3.63;0.20;;;;;;;15.79;89.89;99913.91;7391951;19;20043;-61
2022/10/24 09:22:46;;;;;;;3.80;0.30;;;;;;;15.77;89.02;99913.31;7389775;19;20443;-61
2022/10/24 09:25:22;;;;;;;5.32;0.50;;;;;;;15.81;89.37;99917.16;7389187;19;20022;-61
2022/10/24 09:27:50;;;;;;;3.42;0.20;;;;;;;15.85;89.69;99922.06;7388928;19;20115;-60
2022/10/24 09:30:21;;;;;;;3.33;0.20;;;;;;;15.79;88.45;99921.06;7392919;19;20014;-61
2022/10/24 09:32:47;;;;;;;3.05;0.22;;;;;;;15.81;88.81;99919.81;7388922;19;20142;-60
2022/10/24 09:35:26;;;;;;;5.28;0.30;;;;;;;15.84;89.09;99921.25;7391856;19;20070;-60
2022/10/24 09:37:55;;;;;;;3.58;0.20;;;;;;;15.81;88.17;99925.13;7390545;19;20018;-60
2022/10/24 09:40:22;;;;;;;4.43;0.30;;;;;;;15.78;87.71;99925.56;7390322;19;20038;-60
2022/10/24 09:43:12;;;;;;;0.95;0.20;;;;;;;15.83;88.63;99924.91;7385722;19;20014;-61
2022/10/24 09:45:59;;;;;;;7.82;0.30;;;;;;;15.93;89.03;99932.44;7387614;19;20014;-61
2022/10/24 09:48:39;;;;;;;1.63;0.20;;;;;;;15.99;88.89;99945.69;7392234;19;20014;-59
2022/10/24 09:51:07;;;;;;;2.83;0.20;;;;;;;16.03;88.73;99952.19;7390820;19;20014;-61
2022/10/24 09:53:37;;;;;;;2.70;0.30;;;;;;;16.10;88.55;99952.19;7392437;19;20017;-61
2022/10/24 09:56:13;;;;;;;3.85;0.60;;;;;;;16.15;88.94;99957.69;7389495;19;20043;-60
2022/10/24 09:58:41;;;;;;;3.95;0.30;;;;;;;16.23;89.38;99960.06;7391027;19;20007;-62
2022/10/24 10:01:13;;;;;;;5.93;0.40;;;;;;;16.30;89.13;99957.41;7389766;19;20045;-62
2022/10/24 10:03:41;;;;;;;;;;;;;;;16.31;88.29;99962.47;7392005;19;20819;-60
2022/10/24 10:06:19;;;;;;;5.28;0.28;;;;;;;16.26;87.29;99964.97;7391048;19;19922;-60
2022/10/24 10:08:53;;;;;;;1.77;0.10;;;;;;;16.25;86.71;99969.44;7388867;19;20010;-62
2022/10/24 10:11:32;;;;;;;4.03;0.20;;;;;;;16.26;86.56;99972.91;7387273;19;20562;-61
2022/10/24 10:14:15;;;;;;;2.35;0.20;;;;;;;16.30;85.92;99976.81;7391065;19;20010;-60
2022/10/24 10:16:41;;;;;;;4.22;0.20;;;;;;;16.31;85.17;99970.44;7389255;19;20428;-61
2022/10/24 10:19:18;;;;;;;3.65;1.10;;;;;;;16.33;84.58;99964.94;7389078;19;20365;-61
2022/10/24 10:22:03;;;;;;;4.22;0.35;;;;;;;16.33;84.46;99963.09;7389238;19;20018;-61
2022/10/24 10:24:42;;;;;;;2.47;0.30;;;;;;;16.37;85.49;99966.13;7389136;19;20064;-61
2022/10/24 10:27:32;;;;;;;2.88;0.30;;;;;;;16.42;84.70;99969.78;7386353;19;20023;-59
2022/10/24 10:30:11;;;;;;;4.35;0.32;;;;;;;16.45;83.87;99980.00;7388200;19;20014;-62
2022/10/24 10:32:50;;;;;;;2.38;0.40;;;;;;;16.48;82.85;99984.88;7389631;19;20535;-61
2022/10/24 10:35:48;;;;;;;3.72;0.20;;;;;;;16.53;82.93;99993.03;7389839;19;20047;-61
2022/10/24 10:38:39;;;;;;;4.78;0.45;;;;;;;16.57;83.19;99988.09;7388654;19;20475;-63
2022/10/24 10:41:09;;;;;;;6.95;0.77;;;;;;;16.67;85.53;99989.28;7387042;19;20013;-62
2022/10/24 10:43:50;;;;;;;4.65;0.20;;;;;;;16.74;84.75;99989.25;7386582;19;20018;-61
2022/10/24 10:46:41;;;;;;;2.65;0.20;;;;;;;16.78;83.58;99992.31;7387419;19;20049;-61
2022/10/24 10:49:23;;;;;;;3.50;0.10;;;;;;;16.80;82.27;99998.22;7389338;19;20466;-61
2022/10/24 10:52:00;;;;;;;5.63;0.30;;;;;;;16.82;82.12;100002.28;7387942;19;20029;-61
2022/10/24 10:54:59;;;;;;;3.20;0.32;;;;;;;16.85;81.79;100004.53;7385730;19;20018;-61
2022/10/24 10:57:55;;;;;;;2.35;0.40;;;;;;;16.89;81.96;100007.56;7382179;19;20035;-61
2022/10/24 11:00:31;;;;;;;4.68;0.40;;;;;;;16.91;80.58;100011.66;7388451;19;20011;-61
2022/10/24 11:03:15;;;;;;;3.28;0.20;;;;;;;16.94;80.12;100005.91;7384067;19;20051;-62
2022/10/24 11:05:47;;;;;;;4.97;0.50;;;;;;;16.97;80.28;100009.97;7388664;19;20313;-62
2022/10/24 11:08:33;;;;;;;;;;;;;;;17.02;80.32;100010.13;7389342;19;20017;-61
2022/10/24 11:11:10;;;;;;;2.00;0.15;;;;;;;17.05;81.09;100007.06;7383767;19;19998;-61
2022/10/24 11:14:08;;;;;;;6.22;0.50;;;;;;;17.11;82.15;100000.88;7387173;19;20015;-61
2022/10/24 11:16:37;;;;;;;3.85;0.50;;;;;;;17.16;82.11;100006.38;7386580;19;20014;-63
2022/10/24 11:19:25;;;;;;;6.43;0.50;;;;;;;17.20;82.06;100012.88;7387027;19;20084;-61
2022/10/24 11:21:56;;;;;;;7.10;0.52;;;;;;;17.26;81.88;100003.22;7385949;19;20042;-61
2022/10/24 11:24:24;;;;;;;4.15;0.30;;;;;;;17.30;81.02;100007.91;7384728;19;20026;-62
2022/10/24 11:27:02;;;;;;;2.40;0.40;;;;;;;17.32;80.69;100011.13;7385098;19;20577;-61
2022/10/24 11:29:42;;;;;;;3.88;0.22;;;;;;;17.30;79.20;100012.41;7385256;19;20035;-62
2022/10/24 11:32:23;;;;;;;4.28;0.38;;;;;;;17.28;77.93;100019.75;7385055;19;20015;-63
2022/10/24 11:35:19;;;;;;;3.65;0.68;;;;;;;17.25;78.02;100018.38;7387709;19;20010;-60
2022/10/24 11:37:50;;;;;;;3.47;0.10;;;;;;;17.21;78.80;100022.50;7384682;19;20043;-61
2022/10/24 11:40:21;;;;;;;3.35;0.10;;;;;;;17.19;79.28;100019.22;7386922;19;20007;-62
2022/10/24 11:42:57;;;;;;;2.50;0.30;;;;;;;17.20;78.80;100015.53;7379632;19;20027;-61
2022/10/24 11:45:32;;;;;;;2.75;0.20;;;;;;;17.21;80.11;100022.50;7387185;19;20014;-62
2022/10/24 11:48:12;;;;;;;1.88;0.20;;;;;;;17.23;81.12;100022.25;7386416;19;20014;-61
2022/10/24 11:51:00;;;;;;;3.35;0.68;;;;;;;17.25;82.66;100030.84;7386253;19;20018;-61
2022/10/24 11:53:33;;;;;;;4.70;0.35;;;;;;;17.28;83.09;100038.38;7385742;19;20417;-60